createdAt,value
2022-10-10T00:01:13.607Z,16.10
2022-10-10T00:03:44.918Z,16.24
2022-10-10T00:06:13.224Z,15.96
2022-10-10T00:08:42.111Z,15.91
2022-10-10T00:11:20.559Z,16.10
2022-10-10T00:13:48.376Z,16.27
2022-10-10T00:16:23.455Z,16.48
2022-10-10T00:18:53.006Z,16.67
2022-10-10T00:21:21.121Z,16.30
2022-10-10T00:23:48.824Z,16.34
2022-10-10T00:26:19.139Z,16.41
2022-10-10T00:28:54.344Z,16.60
2022-10-10T00:31:23.357Z,16.33
2022-10-10T00:33:53.621Z,16.42
2022-10-10T00:36:21.750Z,16.63
2022-10-10T00:38:49.626Z,16.42
2022-10-10T00:41:17.573Z,16.32
2022-10-10T00:44:03.088Z,16.22
2022-10-10T00:46:34.565Z,16.14
2022-10-10T00:49:05.170Z,15.94
2022-10-10T00:51:33.449Z,16.09
2022-10-10T00:54:02.330Z,16.28
2022-10-10T00:56:30.972Z,16.15
2022-10-10T00:59:00.106Z,16.35
2022-10-10T01:01:29.162Z,16.17
2022-10-10T01:03:58.109Z,15.97
2022-10-10T01:06:27.394Z,15.89
2022-10-10T01:08:57.496Z,16.00
2022-10-10T01:11:30.702Z,15.84
2022-10-10T01:14:00.470Z,15.99
2022-10-10T01:16:29.384Z,15.77
2022-10-10T01:18:59.952Z,15.52
2022-10-10T01:21:33.990Z,15.63
2022-10-10T01:24:09.425Z,15.97
2022-10-10T01:26:52.090Z,15.60
2022-10-10T01:29:22.391Z,15.58
2022-10-10T01:31:59.341Z,15.48
2022-10-10T01:34:28.978Z,15.30
2022-10-10T01:36:58.978Z,15.67
2022-10-10T01:39:28.957Z,15.53
2022-10-10T01:41:57.429Z,16.09
2022-10-10T01:44:27.999Z,15.82
2022-10-10T01:46:55.557Z,15.46
2022-10-10T01:49:29.281Z,15.82
2022-10-10T01:51:59.244Z,15.47
2022-10-10T01:54:31.738Z,15.26
2022-10-10T01:57:02.754Z,15.44
2022-10-10T01:59:35.066Z,15.56
2022-10-10T02:02:03.901Z,15.47
2022-10-10T02:04:32.604Z,15.62
2022-10-10T02:07:01.410Z,15.15
2022-10-10T02:09:30.694Z,15.05
2022-10-10T02:11:58.529Z,14.96
2022-10-10T02:14:28.720Z,15.08
2022-10-10T02:16:58.629Z,14.96
2022-10-10T02:19:26.680Z,15.00
2022-10-10T02:21:54.558Z,15.17
2022-10-10T02:24:25.404Z,15.13
2022-10-10T02:26:56.811Z,15.23
2022-10-10T02:29:25.936Z,15.40
2022-10-10T02:31:54.849Z,15.64
2022-10-10T02:34:24.871Z,15.75
2022-10-10T02:36:55.067Z,15.48
2022-10-10T02:39:24.675Z,15.52
2022-10-10T02:41:54.824Z,15.32
2022-10-10T02:44:23.199Z,15.25
2022-10-10T02:46:53.743Z,15.21
2022-10-10T02:49:26.241Z,15.51
2022-10-10T02:51:53.872Z,15.03
2022-10-10T02:54:23.354Z,15.07
2022-10-10T02:56:51.423Z,15.05
2022-10-10T02:59:21.854Z,15.26
2022-10-10T03:01:49.764Z,14.69
2022-10-10T03:04:19.284Z,14.65
2022-10-10T03:06:48.295Z,15.41
2022-10-10T03:09:15.958Z,14.77
2022-10-10T03:11:43.868Z,14.85
2022-10-10T03:14:13.125Z,14.68
2022-10-10T03:16:41.935Z,14.68
2022-10-10T03:19:12.103Z,14.45
2022-10-10T03:21:42.647Z,14.46
2022-10-10T03:24:12.687Z,14.50
2022-10-10T03:26:42.730Z,14.27
2022-10-10T03:29:12.871Z,14.53
2022-10-10T03:31:40.487Z,14.25
2022-10-10T03:34:19.434Z,14.72
2022-10-10T03:36:47.639Z,14.44
2022-10-10T03:39:16.905Z,14.70
2022-10-10T03:41:50.472Z,14.39
2022-10-10T03:44:18.547Z,14.54
2022-10-10T03:46:48.965Z,14.31
2022-10-10T03:49:19.927Z,14.24
2022-10-10T03:51:47.698Z,14.21
2022-10-10T03:54:19.364Z,14.28
2022-10-10T03:56:49.836Z,14.05
2022-10-10T03:59:19.261Z,14.08
2022-10-10T04:01:50.019Z,14.36
2022-10-10T04:04:20.185Z,14.49
2022-10-10T04:06:49.833Z,14.59
2022-10-10T04:09:19.166Z,14.32
2022-10-10T04:11:50.023Z,14.31
2022-10-10T04:14:17.856Z,14.13
2022-10-10T04:16:45.746Z,14.50
2022-10-10T04:19:13.543Z,14.45
2022-10-10T04:21:42.653Z,13.88
2022-10-10T04:24:10.755Z,14.41
2022-10-10T04:26:40.562Z,14.35
2022-10-10T04:29:11.454Z,14.28
2022-10-10T04:31:39.160Z,14.35
2022-10-10T04:34:11.272Z,14.51
2022-10-10T04:36:50.451Z,14.37
2022-10-10T04:39:28.457Z,14.12
2022-10-10T04:42:03.496Z,14.20
2022-10-10T04:44:37.052Z,14.34
2022-10-10T04:47:07.493Z,14.35
2022-10-10T04:49:35.405Z,14.67
2022-10-10T04:52:04.493Z,14.69
2022-10-10T04:54:32.225Z,15.18
2022-10-10T04:57:02.953Z,14.84
2022-10-10T04:59:35.801Z,14.91
2022-10-10T05:02:05.972Z,15.26
2022-10-10T05:04:33.701Z,13.77
2022-10-10T05:07:01.590Z,15.42
2022-10-10T05:09:29.793Z,15.68
2022-10-10T05:11:57.767Z,15.79
2022-10-10T05:14:30.735Z,16.05
2022-10-10T05:17:01.074Z,15.76
2022-10-10T05:19:29.678Z,15.49
2022-10-10T05:22:06.161Z,15.14
2022-10-10T05:24:35.014Z,15.02
2022-10-10T05:27:04.874Z,14.99
2022-10-10T05:29:34.520Z,14.73
2022-10-10T05:32:06.455Z,14.73
2022-10-10T05:34:36.842Z,15.27
2022-10-10T05:37:04.707Z,15.47
2022-10-10T05:39:32.464Z,15.07
2022-10-10T05:42:02.976Z,15.35
2022-10-10T05:44:36.931Z,15.24
2022-10-10T05:47:07.145Z,15.19
2022-10-10T05:49:39.442Z,15.14
2022-10-10T05:52:07.212Z,14.79
2022-10-10T05:54:35.200Z,15.17
2022-10-10T05:57:05.267Z,15.54
2022-10-10T05:59:35.253Z,15.51
2022-10-10T06:02:04.964Z,15.46
2022-10-10T06:04:33.154Z,15.44
2022-10-10T06:07:01.329Z,16.23
2022-10-10T06:09:30.158Z,16.44
2022-10-10T06:11:59.403Z,16.75
2022-10-10T06:14:29.082Z,16.87
2022-10-10T06:16:57.062Z,16.76
2022-10-10T06:19:29.796Z,16.68
2022-10-10T06:21:57.859Z,13.65
2022-10-10T06:24:25.699Z,15.62
2022-10-10T06:26:53.587Z,15.70
2022-10-10T06:29:22.007Z,15.51
2022-10-10T06:31:51.938Z,15.82
2022-10-10T06:34:22.990Z,15.93
2022-10-10T06:36:53.914Z,15.59
2022-10-10T06:39:25.213Z,16.07
2022-10-10T06:41:52.870Z,16.33
2022-10-10T06:44:20.759Z,16.74
2022-10-10T06:46:48.759Z,15.32
2022-10-10T06:49:16.533Z,16.92
2022-10-10T06:51:44.298Z,17.20
2022-10-10T06:54:16.830Z,17.26
2022-10-10T06:56:45.300Z,16.67
2022-10-10T06:59:12.978Z,16.49
2022-10-10T07:01:40.784Z,16.58
2022-10-10T07:04:11.678Z,16.46
2022-10-10T07:06:44.302Z,16.71
2022-10-10T07:09:18.334Z,17.06
2022-10-10T07:11:49.257Z,16.71
2022-10-10T07:14:17.987Z,16.48
2022-10-10T07:16:47.141Z,16.41
2022-10-10T07:19:19.435Z,16.54
2022-10-10T07:21:47.107Z,16.53
2022-10-10T07:24:16.699Z,17.01
2022-10-10T07:26:44.903Z,17.28
2022-10-10T07:29:12.711Z,17.07
2022-10-10T07:31:40.590Z,16.87
2022-10-10T07:34:08.511Z,16.72
2022-10-10T07:36:36.227Z,17.00
2022-10-10T07:39:04.038Z,17.12
2022-10-10T07:41:34.086Z,16.76
2022-10-10T07:44:03.171Z,16.62
2022-10-10T07:46:33.456Z,16.61
2022-10-10T07:49:02.979Z,16.71
2022-10-10T07:51:30.679Z,16.45
2022-10-10T07:54:00.560Z,16.41
2022-10-10T07:56:30.996Z,16.70
2022-10-10T07:59:03.167Z,16.72
2022-10-10T08:01:31.122Z,16.71
2022-10-10T08:03:58.904Z,17.04
2022-10-10T08:06:26.988Z,16.90
2022-10-10T08:08:56.138Z,17.01
2022-10-10T08:11:26.058Z,17.24
2022-10-10T08:13:53.911Z,17.52
2022-10-10T08:16:22.968Z,17.78
2022-10-10T08:18:51.579Z,17.48
2022-10-10T08:21:21.563Z,17.86
2022-10-10T08:23:49.659Z,17.83
2022-10-10T08:26:18.381Z,17.64
2022-10-10T08:28:46.125Z,17.37
2022-10-10T08:31:18.095Z,17.71
2022-10-10T08:33:51.082Z,17.60
2022-10-10T08:36:19.853Z,17.49
2022-10-10T08:38:49.588Z,18.34
2022-10-10T08:41:21.237Z,17.91
2022-10-10T08:43:52.187Z,17.89
2022-10-10T08:46:21.000Z,17.79
2022-10-10T08:48:53.216Z,18.43
2022-10-10T08:51:27.318Z,17.74
2022-10-10T08:53:57.222Z,17.91
2022-10-10T08:56:28.706Z,18.08
2022-10-10T08:58:57.767Z,18.30
2022-10-10T09:01:28.777Z,18.03
2022-10-10T09:04:04.479Z,17.88
2022-10-10T09:06:36.372Z,17.90
2022-10-10T09:09:05.723Z,18.23
2022-10-10T09:11:36.965Z,18.82
2022-10-10T09:14:12.229Z,18.39
2022-10-10T09:16:41.739Z,19.09
2022-10-10T09:19:17.511Z,18.85
2022-10-10T09:21:46.396Z,19.08
2022-10-10T09:24:17.128Z,18.83
2022-10-10T09:26:46.660Z,18.61
2022-10-10T09:29:18.565Z,19.16
2022-10-10T09:31:47.706Z,19.31
2022-10-10T09:34:19.426Z,19.26
2022-10-10T09:36:48.878Z,19.44
2022-10-10T09:39:20.052Z,18.93
2022-10-10T09:41:49.268Z,18.93
2022-10-10T09:44:17.260Z,19.25
2022-10-10T09:46:44.853Z,19.61
2022-10-10T09:49:14.132Z,19.59
2022-10-10T09:51:43.702Z,20.24
2022-10-10T09:54:13.727Z,20.24
2022-10-10T09:56:44.896Z,20.15
2022-10-10T09:59:28.844Z,19.17
2022-10-10T10:02:05.664Z,19.24
2022-10-10T10:04:34.541Z,20.43
2022-10-10T10:07:08.914Z,20.77
2022-10-10T10:09:46.729Z,20.97
2022-10-10T10:12:15.621Z,20.72
2022-10-10T10:14:43.282Z,20.89
2022-10-10T10:17:11.829Z,20.62
2022-10-10T10:19:40.118Z,20.23
2022-10-10T10:22:16.437Z,21.16
2022-10-10T10:24:51.561Z,20.49
2022-10-10T10:27:20.239Z,20.32
2022-10-10T10:29:49.040Z,20.92
2022-10-10T10:32:18.687Z,21.45
2022-10-10T10:35:01.171Z,21.29
2022-10-10T10:37:32.788Z,21.00
2022-10-10T10:40:10.340Z,20.93
2022-10-10T10:42:43.391Z,21.20
2022-10-10T10:45:13.962Z,20.90
2022-10-10T10:47:44.305Z,20.45
2022-10-10T10:50:19.686Z,21.38
2022-10-10T10:52:55.715Z,21.54
2022-10-10T10:55:27.378Z,20.12
2022-10-10T11:01:23.598Z,21.67
2022-10-10T11:05:16.215Z,21.03
2022-10-10T11:07:00.161Z,22.52
2022-10-10T11:09:49.802Z,22.28
2022-10-10T11:12:21.508Z,21.96
2022-10-10T11:14:55.630Z,21.92
2022-10-10T11:17:24.693Z,22.40
2022-10-10T11:19:56.933Z,22.35
2022-10-10T11:22:28.171Z,21.54
2022-10-10T11:24:58.842Z,22.63
2022-10-10T11:27:27.886Z,23.11
2022-10-10T11:29:59.622Z,23.15
2022-10-10T11:32:28.696Z,23.93
2022-10-10T11:35:02.941Z,24.44
2022-10-10T11:37:31.696Z,24.80
2022-10-10T11:40:03.132Z,25.41
2022-10-10T11:42:31.157Z,24.89
2022-10-10T11:44:59.623Z,24.64
2022-10-10T11:47:28.426Z,24.97
2022-10-10T11:49:57.603Z,24.63
2022-10-10T11:52:34.633Z,24.70
2022-10-10T11:55:07.539Z,25.21
2022-10-10T11:57:36.044Z,25.32
2022-10-10T12:00:05.577Z,23.09
2022-10-10T12:02:34.493Z,24.85
2022-10-10T12:05:04.751Z,24.47
2022-10-10T12:07:32.751Z,24.64
2022-10-10T12:10:01.313Z,24.10
2022-10-10T12:12:30.955Z,24.21
2022-10-10T12:15:00.156Z,24.80
2022-10-10T12:17:29.835Z,24.69
2022-10-10T12:19:57.689Z,24.04
2022-10-10T12:22:26.709Z,24.02
2022-10-10T12:25:18.180Z,23.77
2022-10-10T12:27:49.236Z,24.53
2022-10-10T12:30:18.498Z,23.90
2022-10-10T12:32:46.550Z,24.74
2022-10-10T12:35:34.752Z,25.36
2022-10-10T12:38:17.669Z,24.47
2022-10-10T12:41:00.913Z,23.63
2022-10-10T12:43:41.202Z,23.62
2022-10-10T12:46:10.184Z,23.13
2022-10-10T12:48:40.571Z,23.70
2022-10-10T12:51:16.924Z,23.33
2022-10-10T12:53:45.393Z,24.15
2022-10-10T12:56:17.462Z,24.68
2022-10-10T12:58:52.438Z,24.99
2022-10-10T13:01:25.582Z,24.69
2022-10-10T13:03:53.397Z,24.72
2022-10-10T13:06:25.226Z,24.57
2022-10-10T13:08:53.073Z,24.75
2022-10-10T13:11:21.065Z,24.97
2022-10-10T13:13:51.812Z,25.13
2022-10-10T13:16:22.561Z,25.42
2022-10-10T13:18:51.451Z,25.59
2022-10-10T13:21:22.761Z,25.55
2022-10-10T13:26:48.877Z,25.19
2022-10-10T13:29:21.183Z,25.48
2022-10-10T13:31:52.007Z,25.66
2022-10-10T13:34:23.482Z,25.37
2022-10-10T13:36:54.847Z,25.60
2022-10-10T13:39:22.480Z,24.84
2022-10-10T13:41:51.250Z,24.67
2022-10-10T13:44:24.238Z,24.94
2022-10-10T13:46:52.246Z,25.17
2022-10-10T13:49:24.002Z,25.15
2022-10-10T13:52:00.964Z,25.20
2022-10-10T13:54:42.778Z,25.25
2022-10-10T13:57:23.898Z,25.05
2022-10-10T14:00:04.939Z,24.84
2022-10-10T14:02:33.485Z,24.65
2022-10-10T14:05:03.718Z,24.60
2022-10-10T14:07:35.080Z,24.55
2022-10-10T14:10:12.137Z,24.29
2022-10-10T14:12:41.378Z,24.13
2022-10-10T14:15:23.954Z,24.24
2022-10-10T14:17:56.001Z,24.14
2022-10-10T14:20:26.663Z,24.40
2022-10-10T14:22:54.429Z,24.80
2022-10-10T14:25:22.040Z,24.60
2022-10-10T14:27:49.994Z,24.64
2022-10-10T14:30:22.120Z,24.28
2022-10-10T14:32:53.629Z,24.57
2022-10-10T14:35:27.005Z,24.98
2022-10-10T14:37:55.169Z,25.04
2022-10-10T14:40:25.055Z,24.99
2022-10-10T14:42:52.612Z,24.86
2022-10-10T14:45:20.322Z,24.91
2022-10-10T14:47:47.956Z,24.77
2022-10-10T14:50:16.218Z,24.98
2022-10-10T14:52:45.481Z,25.18
2022-10-10T14:55:15.761Z,25.19
2022-10-10T14:57:43.454Z,25.08
2022-10-10T15:00:17.463Z,24.85
2022-10-10T15:02:45.892Z,24.76
2022-10-10T15:05:13.886Z,24.83
2022-10-10T15:07:42.443Z,25.14
2022-10-10T15:10:33.210Z,25.15
2022-10-10T15:13:00.008Z,25.35
2022-10-10T15:15:28.498Z,25.43
2022-10-10T15:17:56.384Z,25.65
2022-10-10T15:20:30.513Z,25.25
2022-10-10T15:22:58.887Z,25.14
2022-10-10T15:25:33.793Z,24.73
2022-10-10T15:28:02.481Z,24.63
2022-10-10T15:30:30.629Z,25.17
2022-10-10T15:32:58.544Z,24.57
2022-10-10T15:35:26.702Z,24.83
2022-10-10T15:37:56.203Z,23.91
2022-10-10T15:40:27.117Z,25.14
2022-10-10T15:42:56.651Z,25.37
2022-10-10T15:48:16.442Z,25.59
2022-10-10T15:50:44.084Z,25.06
2022-10-10T15:53:12.743Z,24.75
2022-10-10T15:55:43.999Z,24.42
2022-10-10T15:58:13.218Z,24.05
2022-10-10T16:00:42.882Z,23.75
2022-10-10T16:03:11.077Z,23.90
2022-10-10T16:05:38.958Z,23.95
2022-10-10T16:08:07.881Z,23.89
2022-10-10T16:10:40.610Z,23.93
2022-10-10T16:13:08.596Z,23.96
2022-10-10T16:15:37.929Z,24.02
2022-10-10T16:18:15.200Z,24.03
2022-10-10T16:20:48.358Z,24.04
2022-10-10T16:23:19.684Z,24.03
2022-10-10T16:25:49.482Z,23.94
2022-10-10T16:28:17.260Z,23.82
2022-10-10T16:30:48.236Z,23.73
2022-10-10T16:33:15.841Z,23.82
2022-10-10T16:35:43.752Z,23.83
2022-10-10T16:38:11.619Z,23.78
2022-10-10T16:40:43.457Z,23.70
2022-10-10T16:43:11.057Z,23.64
2022-10-10T16:45:42.092Z,23.40
2022-10-10T16:48:11.650Z,23.15
2022-10-10T16:50:46.907Z,23.05
2022-10-10T16:53:14.502Z,23.08
2022-10-10T16:55:42.376Z,22.86
2022-10-10T16:58:10.125Z,22.83
2022-10-10T17:00:38.210Z,22.84
2022-10-10T17:03:08.986Z,22.72
2022-10-10T17:05:37.963Z,22.54
2022-10-10T17:08:05.721Z,22.48
2022-10-10T17:10:34.468Z,22.41
2022-10-10T17:13:02.087Z,22.32
2022-10-10T17:15:32.794Z,22.07
2022-10-10T17:18:01.645Z,22.19
2022-10-10T17:20:32.393Z,22.19
2022-10-10T17:23:02.052Z,22.22
2022-10-10T17:25:33.475Z,22.14
2022-10-10T17:28:01.166Z,21.89
2022-10-10T17:30:31.100Z,21.50
2022-10-10T17:33:01.278Z,21.70
2022-10-10T17:35:29.392Z,21.81
2022-10-10T17:38:04.468Z,21.90
2022-10-10T17:40:49.604Z,21.79
2022-10-10T17:43:17.233Z,21.65
2022-10-10T17:45:44.847Z,21.29
2022-10-10T17:48:17.087Z,21.25
2022-10-10T17:50:44.661Z,21.25
2022-10-10T17:53:12.433Z,20.75
2022-10-10T17:55:41.850Z,18.98
2022-10-10T17:58:17.438Z,18.48
2022-10-10T18:00:45.562Z,18.03
2022-10-10T18:03:13.749Z,17.79
2022-10-10T18:05:41.632Z,17.43
2022-10-10T18:08:11.781Z,17.52
2022-10-10T18:10:45.071Z,18.22
2022-10-10T18:13:14.396Z,18.02
2022-10-10T18:16:04.057Z,18.62
2022-10-10T18:18:36.426Z,19.44
2022-10-10T18:21:05.207Z,19.54
2022-10-10T18:23:33.380Z,19.23
2022-10-10T18:26:01.530Z,19.44
2022-10-10T18:28:32.399Z,19.65
2022-10-10T18:31:04.004Z,19.58
2022-10-10T18:33:33.424Z,18.68
2022-10-10T18:36:01.273Z,18.40
2022-10-10T18:38:29.092Z,17.92
2022-10-10T18:41:05.220Z,18.49
2022-10-10T18:43:35.538Z,18.94
2022-10-10T18:46:03.737Z,18.87
2022-10-10T18:48:32.066Z,18.09
2022-10-10T18:51:04.928Z,18.59
2022-10-10T18:53:36.399Z,18.51
2022-10-10T18:56:09.580Z,18.01
2022-10-10T18:58:39.819Z,18.28
2022-10-10T19:01:08.928Z,18.14
2022-10-10T19:03:37.447Z,17.45
2022-10-10T19:06:08.517Z,18.87
2022-10-10T19:08:37.574Z,18.73
2022-10-10T19:11:06.751Z,18.35
2022-10-10T19:13:34.728Z,16.99
2022-10-10T19:16:05.985Z,17.25
2022-10-10T19:18:34.858Z,17.69
2022-10-10T19:21:03.293Z,17.42
2022-10-10T19:23:34.941Z,18.07
2022-10-10T19:26:03.550Z,17.70
2022-10-10T19:28:32.599Z,18.23
2022-10-10T19:31:04.021Z,18.80
2022-10-10T19:33:33.338Z,18.58
2022-10-10T19:36:01.737Z,18.59
2022-10-10T19:38:29.908Z,18.89
2022-10-10T19:40:58.937Z,17.61
2022-10-10T19:43:26.966Z,18.09
2022-10-10T19:45:54.606Z,18.14
2022-10-10T19:48:23.502Z,17.87
2022-10-10T19:50:53.539Z,16.49
2022-10-10T19:53:24.531Z,17.73
2022-10-10T19:55:57.659Z,18.21
2022-10-10T19:58:25.466Z,17.41
2022-10-10T20:00:53.417Z,17.68
2022-10-10T20:03:21.119Z,17.89
2022-10-10T20:05:48.786Z,18.26
2022-10-10T20:08:20.151Z,18.51
2022-10-10T20:10:48.174Z,18.19
2022-10-10T20:13:24.070Z,18.04
2022-10-10T20:15:52.185Z,17.92
2022-10-10T20:18:20.629Z,17.49
2022-10-10T20:20:52.443Z,17.77
2022-10-10T20:23:25.801Z,18.17
2022-10-10T20:25:53.459Z,17.70
2022-10-10T20:28:21.484Z,18.17
2022-10-10T20:30:50.001Z,18.04
2022-10-10T20:33:19.661Z,18.32
2022-10-10T20:35:55.133Z,18.66
2022-10-10T20:38:27.447Z,18.74
2022-10-10T20:40:55.356Z,18.71
2022-10-10T20:43:23.539Z,19.07
2022-10-10T20:45:54.103Z,19.04
2022-10-10T20:48:21.746Z,18.83
2022-10-10T20:50:51.438Z,18.49
2022-10-10T20:53:19.212Z,18.31
2022-10-10T20:55:48.646Z,18.78
2022-10-10T20:58:16.274Z,18.76
2022-10-10T21:00:45.178Z,18.46
2022-10-10T21:03:16.391Z,18.50
2022-10-10T21:05:43.930Z,18.51
2022-10-10T21:08:11.514Z,18.48
2022-10-10T21:10:43.076Z,18.74
2022-10-10T21:13:12.155Z,18.45
2022-10-10T21:18:28.418Z,18.83
2022-10-10T21:20:58.811Z,18.61
2022-10-10T21:23:26.359Z,18.68
2022-10-10T21:25:54.190Z,18.76
2022-10-10T21:28:24.167Z,18.82
2022-10-10T21:30:54.270Z,18.80
2022-10-10T21:33:21.810Z,18.63
2022-10-10T21:35:51.066Z,19.17
2022-10-10T21:38:23.810Z,18.81
2022-10-10T21:40:51.936Z,19.10
2022-10-10T21:43:19.899Z,18.90
2022-10-10T21:45:51.792Z,18.87
2022-10-10T21:48:19.526Z,17.99
2022-10-10T21:50:47.180Z,17.78
2022-10-10T21:53:16.773Z,17.92
2022-10-10T21:55:44.298Z,18.35
2022-10-10T21:58:12.182Z,18.21
2022-10-10T22:00:42.778Z,18.29
2022-10-10T22:03:12.133Z,18.50
2022-10-10T22:05:40.897Z,18.85
2022-10-10T22:08:08.871Z,18.47
2022-10-10T22:10:41.893Z,18.40
2022-10-10T22:13:09.529Z,18.48
2022-10-10T22:15:37.982Z,18.50
2022-10-10T22:18:05.676Z,18.11
2022-10-10T22:20:35.228Z,18.79
2022-10-10T22:23:03.550Z,18.87
2022-10-10T22:25:31.519Z,18.87
2022-10-10T22:28:05.218Z,18.13
2022-10-10T22:30:43.793Z,18.59
2022-10-10T22:33:13.476Z,18.58
2022-10-10T22:35:45.177Z,18.99
2022-10-10T22:38:17.934Z,18.63
2022-10-10T22:40:45.541Z,18.55
2022-10-10T22:43:13.387Z,18.52
2022-10-10T22:45:44.215Z,17.89
2022-10-10T22:48:14.164Z,18.00
2022-10-10T22:50:42.161Z,17.98
2022-10-10T22:53:12.949Z,17.90
2022-10-10T22:55:41.065Z,18.39
2022-10-10T22:58:09.273Z,18.61
2022-10-10T23:00:36.899Z,18.50
2022-10-10T23:03:04.890Z,18.18
2022-10-10T23:05:35.862Z,17.74
2022-10-10T23:08:03.960Z,18.06
2022-10-10T23:10:33.166Z,18.46
2022-10-10T23:13:02.891Z,18.78
2022-10-10T23:15:30.850Z,18.73
2022-10-10T23:17:58.734Z,18.77
2022-10-10T23:20:26.393Z,18.66
2022-10-10T23:22:54.419Z,18.54
2022-10-10T23:25:24.970Z,18.21
2022-10-10T23:27:55.323Z,18.04
2022-10-10T23:30:24.841Z,18.08
2022-10-10T23:32:52.845Z,17.48
2022-10-10T23:35:23.520Z,17.56
2022-10-10T23:37:52.603Z,18.26
2022-10-10T23:40:20.337Z,18.29
2022-10-10T23:42:47.845Z,18.27
2022-10-10T23:45:17.458Z,17.91
2022-10-10T23:47:45.042Z,18.49
2022-10-10T23:50:12.813Z,18.58
2022-10-10T23:52:40.711Z,18.18
2022-10-10T23:55:11.255Z,17.96
2022-10-10T23:57:38.837Z,18.55
